sensor_id;sensor_type;location;lat;lon;timestamp;P1;durP1;ratioP1;P2;durP2;ratioP2
48524;SDS011;34316;51.514;-0.178;2022-09-14T00:01:42;6.15;;;4.68;;
48524;SDS011;34316;51.514;-0.178;2022-09-14T00:03:45;10.18;;;4.97;;
48524;SDS011;34316;51.514;-0.178;2022-09-14T00:05:47;6.85;;;5.20;;
48524;SDS011;34316;51.514;-0.178;2022-09-14T00:07:48;8.13;;;5.15;;
48524;SDS011;34316;51.514;-0.178;2022-09-14T00:09:50;7.60;;;4.88;;
48524;SDS011;34316;51.514;-0.178;2022-09-14T00:11:52;7.57;;;5.15;;
48524;SDS011;34316;51.514;-0.178;2022-09-14T00:13:55;6.22;;;5.28;;
48524;SDS011;34316;51.514;-0.178;2022-09-14T00:16:01;7.63;;;5.38;;
48524;SDS011;34316;51.514;-0.178;2022-09-14T00:18:08;7.20;;;5.13;;
48524;SDS011;34316;51.514;-0.178;2022-09-14T00:20:10;7.82;;;5.40;;
48524;SDS011;34316;51.514;-0.178;2022-09-14T00:22:12;7.40;;;5.43;;
48524;SDS011;34316;51.514;-0.178;2022-09-14T00:24:14;8.20;;;5.50;;
48524;SDS011;34316;51.514;-0.178;2022-09-14T00:26:16;6.82;;;4.95;;
48524;SDS011;34316;51.514;-0.178;2022-09-14T00:28:19;8.07;;;5.53;;
48524;SDS011;34316;51.514;-0.178;2022-09-14T00:30:21;8.38;;;5.03;;
48524;SDS011;34316;51.514;-0.178;2022-09-14T00:32:23;7.28;;;5.38;;
48524;SDS011;34316;51.514;-0.178;2022-09-14T00:34:26;6.13;;;5.28;;
48524;SDS011;34316;51.514;-0.178;2022-09-14T00:36:28;9.38;;;5.20;;
48524;SDS011;34316;51.514;-0.178;2022-09-14T00:38:30;6.20;;;4.63;;
48524;SDS011;34316;51.514;-0.178;2022-09-14T00:40:32;5.63;;;5.00;;
48524;SDS011;34316;51.514;-0.178;2022-09-14T00:42:34;5.65;;;5.03;;
48524;SDS011;34316;51.514;-0.178;2022-09-14T00:46:39;9.02;;;5.25;;
48524;SDS011;34316;51.514;-0.178;2022-09-14T00:48:42;7.60;;;4.90;;
48524;SDS011;34316;51.514;-0.178;2022-09-14T00:50:44;5.75;;;4.50;;
48524;SDS011;34316;51.514;-0.178;2022-09-14T00:52:47;7.50;;;5.22;;
48524;SDS011;34316;51.514;-0.178;2022-09-14T00:54:54;7.00;;;4.40;;
48524;SDS011;34316;51.514;-0.178;2022-09-14T00:56:57;5.65;;;4.70;;
48524;SDS011;34316;51.514;-0.178;2022-09-14T00:59:01;6.53;;;4.88;;
48524;SDS011;34316;51.514;-0.178;2022-09-14T01:01:07;12.68;;;4.57;;
48524;SDS011;34316;51.514;-0.178;2022-09-14T01:03:10;12.45;;;5.28;;
48524;SDS011;34316;51.514;-0.178;2022-09-14T01:05:12;4.95;;;4.15;;
48524;SDS011;34316;51.514;-0.178;2022-09-14T01:07:30;3.95;;;3.55;;
48524;SDS011;34316;51.514;-0.178;2022-09-14T01:14:21;4.68;;;4.18;;
48524;SDS011;34316;51.514;-0.178;2022-09-14T01:18:46;4.20;;;3.80;;
48524;SDS011;34316;51.514;-0.178;2022-09-14T01:28:08;5.97;;;4.07;;
48524;SDS011;34316;51.514;-0.178;2022-09-14T01:30:14;5.50;;;4.22;;
48524;SDS011;34316;51.514;-0.178;2022-09-14T01:34:38;4.72;;;4.22;;
48524;SDS011;34316;51.514;-0.178;2022-09-14T01:36:45;5.00;;;3.80;;
48524;SDS011;34316;51.514;-0.178;2022-09-14T01:38:52;6.50;;;4.25;;
48524;SDS011;34316;51.514;-0.178;2022-09-14T01:40:54;5.72;;;3.85;;
48524;SDS011;34316;51.514;-0.178;2022-09-14T01:42:58;7.90;;;4.80;;
48524;SDS011;34316;51.514;-0.178;2022-09-14T01:45:06;5.80;;;4.18;;
48524;SDS011;34316;51.514;-0.178;2022-09-14T01:47:33;5.35;;;4.10;;
48524;SDS011;34316;51.514;-0.178;2022-09-14T01:49:40;6.80;;;4.65;;
48524;SDS011;34316;51.514;-0.178;2022-09-14T01:51:45;5.20;;;4.38;;
48524;SDS011;34316;51.514;-0.178;2022-09-14T01:53:53;6.97;;;4.20;;
48524;SDS011;34316;51.514;-0.178;2022-09-14T01:55:59;5.35;;;4.32;;
48524;SDS011;34316;51.514;-0.178;2022-09-14T01:58:07;5.97;;;4.57;;
48524;SDS011;34316;51.514;-0.178;2022-09-14T02:00:11;6.03;;;4.43;;
48524;SDS011;34316;51.514;-0.178;2022-09-14T02:02:25;6.43;;;4.72;;
48524;SDS011;34316;51.514;-0.178;2022-09-14T02:04:42;7.97;;;5.30;;
48524;SDS011;34316;51.514;-0.178;2022-09-14T02:06:48;6.63;;;5.03;;
48524;SDS011;34316;51.514;-0.178;2022-09-14T02:08:50;5.50;;;4.82;;
48524;SDS011;34316;51.514;-0.178;2022-09-14T02:10:53;6.75;;;5.30;;
48524;SDS011;34316;51.514;-0.178;2022-09-14T02:12:55;7.18;;;4.50;;
48524;SDS011;34316;51.514;-0.178;2022-09-14T02:14:57;6.32;;;4.97;;
48524;SDS011;34316;51.514;-0.178;2022-09-14T02:16:59;5.65;;;4.57;;
48524;SDS011;34316;51.514;-0.178;2022-09-14T02:19:00;5.43;;;4.80;;
48524;SDS011;34316;51.514;-0.178;2022-09-14T02:21:07;7.82;;;4.97;;
48524;SDS011;34316;51.514;-0.178;2022-09-14T02:23:12;6.72;;;4.50;;
48524;SDS011;34316;51.514;-0.178;2022-09-14T02:25:14;6.03;;;4.90;;
48524;SDS011;34316;51.514;-0.178;2022-09-14T02:27:16;8.00;;;4.70;;
48524;SDS011;34316;51.514;-0.178;2022-09-14T02:29:18;6.78;;;5.25;;
48524;SDS011;34316;51.514;-0.178;2022-09-14T02:35:53;7.60;;;4.63;;
48524;SDS011;34316;51.514;-0.178;2022-09-14T02:38:14;6.55;;;4.75;;
48524;SDS011;34316;51.514;-0.178;2022-09-14T02:47:09;6.72;;;5.30;;
48524;SDS011;34316;51.514;-0.178;2022-09-14T02:51:35;9.02;;;5.43;;
48524;SDS011;34316;51.514;-0.178;2022-09-14T02:53:53;7.10;;;5.38;;
48524;SDS011;34316;51.514;-0.178;2022-09-14T02:56:01;6.13;;;5.10;;
48524;SDS011;34316;51.514;-0.178;2022-09-14T02:58:09;7.80;;;4.75;;
48524;SDS011;34316;51.514;-0.178;2022-09-14T03:00:13;8.20;;;4.93;;
48524;SDS011;34316;51.514;-0.178;2022-09-14T03:02:15;8.25;;;4.80;;
48524;SDS011;34316;51.514;-0.178;2022-09-14T03:04:17;5.70;;;5.10;;
48524;SDS011;34316;51.514;-0.178;2022-09-14T03:06:18;6.22;;;4.78;;
48524;SDS011;34316;51.514;-0.178;2022-09-14T03:08:20;6.30;;;4.95;;
48524;SDS011;34316;51.514;-0.178;2022-09-14T03:10:22;6.25;;;4.90;;
48524;SDS011;34316;51.514;-0.178;2022-09-14T03:12:23;9.45;;;5.40;;
48524;SDS011;34316;51.514;-0.178;2022-09-14T03:14:25;8.50;;;5.38;;
48524;SDS011;34316;51.514;-0.178;2022-09-14T03:16:27;5.57;;;4.90;;
48524;SDS011;34316;51.514;-0.178;2022-09-14T03:18:28;5.40;;;4.72;;
48524;SDS011;34316;51.514;-0.178;2022-09-14T03:20:30;9.27;;;5.25;;
48524;SDS011;34316;51.514;-0.178;2022-09-14T03:22:33;6.47;;;4.90;;
48524;SDS011;34316;51.514;-0.178;2022-09-14T03:24:34;6.78;;;5.05;;
48524;SDS011;34316;51.514;-0.178;2022-09-14T03:26:36;7.88;;;4.75;;
48524;SDS011;34316;51.514;-0.178;2022-09-14T03:28:39;5.93;;;4.50;;
48524;SDS011;34316;51.514;-0.178;2022-09-14T03:30:41;5.88;;;4.68;;
48524;SDS011;34316;51.514;-0.178;2022-09-14T03:32:43;7.07;;;4.70;;
48524;SDS011;34316;51.514;-0.178;2022-09-14T03:34:45;7.88;;;4.97;;
48524;SDS011;34316;51.514;-0.178;2022-09-14T03:36:46;10.43;;;4.88;;
48524;SDS011;34316;51.514;-0.178;2022-09-14T03:38:49;9.43;;;5.40;;
48524;SDS011;34316;51.514;-0.178;2022-09-14T03:40:52;7.25;;;5.18;;
48524;SDS011;34316;51.514;-0.178;2022-09-14T03:42:54;7.75;;;5.70;;
48524;SDS011;34316;51.514;-0.178;2022-09-14T03:44:55;7.97;;;5.20;;
48524;SDS011;34316;51.514;-0.178;2022-09-14T03:46:58;8.73;;;5.35;;
48524;SDS011;34316;51.514;-0.178;2022-09-14T03:49:00;8.20;;;6.13;;
48524;SDS011;34316;51.514;-0.178;2022-09-14T03:51:02;12.68;;;5.63;;
48524;SDS011;34316;51.514;-0.178;2022-09-14T03:53:05;9.57;;;6.07;;
48524;SDS011;34316;51.514;-0.178;2022-09-14T03:55:06;11.15;;;6.45;;
48524;SDS011;34316;51.514;-0.178;2022-09-14T03:57:09;9.27;;;6.30;;
48524;SDS011;34316;51.514;-0.178;2022-09-14T03:59:11;12.45;;;6.15;;
48524;SDS011;34316;51.514;-0.178;2022-09-14T04:01:14;8.63;;;6.35;;
48524;SDS011;34316;51.514;-0.178;2022-09-14T04:03:17;10.77;;;6.28;;
48524;SDS011;34316;51.514;-0.178;2022-09-14T04:05:19;11.60;;;6.50;;
48524;SDS011;34316;51.514;-0.178;2022-09-14T04:07:22;11.97;;;6.57;;
48524;SDS011;34316;51.514;-0.178;2022-09-14T04:09:23;15.45;;;6.32;;
48524;SDS011;34316;51.514;-0.178;2022-09-14T04:11:25;9.95;;;6.60;;
48524;SDS011;34316;51.514;-0.178;2022-09-14T04:13:28;11.63;;;6.07;;
48524;SDS011;34316;51.514;-0.178;2022-09-14T04:15:29;10.05;;;6.10;;
48524;SDS011;34316;51.514;-0.178;2022-09-14T04:17:31;9.07;;;6.25;;
48524;SDS011;34316;51.514;-0.178;2022-09-14T04:19:33;9.52;;;6.07;;
48524;SDS011;34316;51.514;-0.178;2022-09-14T04:21:37;11.57;;;5.80;;
48524;SDS011;34316;51.514;-0.178;2022-09-14T04:23:39;12.38;;;6.60;;
48524;SDS011;34316;51.514;-0.178;2022-09-14T04:26:01;7.32;;;5.68;;
48524;SDS011;34316;51.514;-0.178;2022-09-14T04:28:10;11.93;;;6.55;;
48524;SDS011;34316;51.514;-0.178;2022-09-14T04:30:20;10.02;;;6.60;;
48524;SDS011;34316;51.514;-0.178;2022-09-14T04:32:22;13.02;;;6.07;;
48524;SDS011;34316;51.514;-0.178;2022-09-14T04:34:24;8.95;;;6.53;;
48524;SDS011;34316;51.514;-0.178;2022-09-14T04:36:26;10.70;;;6.32;;
48524;SDS011;34316;51.514;-0.178;2022-09-14T04:38:31;9.63;;;6.13;;
48524;SDS011;34316;51.514;-0.178;2022-09-14T04:40:33;10.90;;;5.55;;
48524;SDS011;34316;51.514;-0.178;2022-09-14T04:42:35;8.50;;;6.25;;
48524;SDS011;34316;51.514;-0.178;2022-09-14T04:44:37;13.38;;;5.93;;
48524;SDS011;34316;51.514;-0.178;2022-09-14T04:46:38;10.48;;;6.25;;
48524;SDS011;34316;51.514;-0.178;2022-09-14T04:48:47;14.27;;;6.03;;
48524;SDS011;34316;51.514;-0.178;2022-09-14T04:50:49;12.40;;;6.63;;
48524;SDS011;34316;51.514;-0.178;2022-09-14T04:52:50;13.77;;;6.03;;
48524;SDS011;34316;51.514;-0.178;2022-09-14T04:54:52;11.30;;;6.50;;
48524;SDS011;34316;51.514;-0.178;2022-09-14T04:56:54;9.75;;;6.25;;
48524;SDS011;34316;51.514;-0.178;2022-09-14T04:58:56;11.60;;;7.32;;
48524;SDS011;34316;51.514;-0.178;2022-09-14T05:01:02;15.45;;;7.35;;
48524;SDS011;34316;51.514;-0.178;2022-09-14T05:03:05;11.65;;;7.13;;
48524;SDS011;34316;51.514;-0.178;2022-09-14T05:05:07;12.82;;;7.45;;
48524;SDS011;34316;51.514;-0.178;2022-09-14T05:07:09;20.10;;;7.45;;
48524;SDS011;34316;51.514;-0.178;2022-09-14T05:09:14;15.70;;;7.80;;
48524;SDS011;34316;51.514;-0.178;2022-09-14T05:11:18;16.65;;;7.72;;
48524;SDS011;34316;51.514;-0.178;2022-09-14T05:15:23;10.77;;;7.18;;
48524;SDS011;34316;51.514;-0.178;2022-09-14T05:17:25;10.68;;;6.85;;
48524;SDS011;34316;51.514;-0.178;2022-09-14T05:19:26;12.40;;;7.20;;
48524;SDS011;34316;51.514;-0.178;2022-09-14T05:21:29;11.10;;;7.10;;
48524;SDS011;34316;51.514;-0.178;2022-09-14T05:23:32;15.02;;;7.25;;
48524;SDS011;34316;51.514;-0.178;2022-09-14T05:25:34;11.80;;;7.07;;
48524;SDS011;34316;51.514;-0.178;2022-09-14T05:27:35;9.98;;;7.53;;
48524;SDS011;34316;51.514;-0.178;2022-09-14T05:29:37;12.18;;;7.47;;
48524;SDS011;34316;51.514;-0.178;2022-09-14T05:31:40;14.55;;;7.40;;
48524;SDS011;34316;51.514;-0.178;2022-09-14T05:33:43;9.23;;;6.78;;
48524;SDS011;34316;51.514;-0.178;2022-09-14T05:35:45;12.20;;;7.07;;
48524;SDS011;34316;51.514;-0.178;2022-09-14T05:37:47;11.10;;;7.32;;
48524;SDS011;34316;51.514;-0.178;2022-09-14T05:39:49;12.88;;;8.05;;
48524;SDS011;34316;51.514;-0.178;2022-09-14T05:41:51;15.73;;;8.00;;
48524;SDS011;34316;51.514;-0.178;2022-09-14T05:43:53;14.45;;;8.52;;
48524;SDS011;34316;51.514;-0.178;2022-09-14T05:45:54;16.88;;;8.38;;
48524;SDS011;34316;51.514;-0.178;2022-09-14T05:47:59;8.60;;;7.20;;
48524;SDS011;34316;51.514;-0.178;2022-09-14T05:50:07;17.27;;;7.32;;
48524;SDS011;34316;51.514;-0.178;2022-09-14T05:52:09;10.93;;;7.95;;
48524;SDS011;34316;51.514;-0.178;2022-09-14T05:54:10;12.98;;;7.28;;
48524;SDS011;34316;51.514;-0.178;2022-09-14T05:56:12;13.13;;;8.48;;
48524;SDS011;34316;51.514;-0.178;2022-09-14T05:58:14;12.98;;;9.32;;
48524;SDS011;34316;51.514;-0.178;2022-09-14T06:00:17;14.20;;;8.73;;
48524;SDS011;34316;51.514;-0.178;2022-09-14T06:02:19;16.15;;;9.68;;
48524;SDS011;34316;51.514;-0.178;2022-09-14T06:04:20;21.48;;;9.70;;
48524;SDS011;34316;51.514;-0.178;2022-09-14T06:06:22;11.18;;;8.57;;
48524;SDS011;34316;51.514;-0.178;2022-09-14T06:08:24;17.83;;;8.65;;
48524;SDS011;34316;51.514;-0.178;2022-09-14T06:10:26;14.93;;;8.35;;
48524;SDS011;34316;51.514;-0.178;2022-09-14T06:12:28;10.80;;;8.15;;
48524;SDS011;34316;51.514;-0.178;2022-09-14T06:14:29;16.38;;;8.32;;
48524;SDS011;34316;51.514;-0.178;2022-09-14T06:16:31;11.80;;;7.45;;
48524;SDS011;34316;51.514;-0.178;2022-09-14T06:18:34;21.77;;;9.10;;
48524;SDS011;34316;51.514;-0.178;2022-09-14T06:20:36;13.23;;;8.38;;
48524;SDS011;34316;51.514;-0.178;2022-09-14T06:22:38;14.85;;;8.65;;
48524;SDS011;34316;51.514;-0.178;2022-09-14T06:24:39;13.50;;;9.63;;
48524;SDS011;34316;51.514;-0.178;2022-09-14T06:26:41;14.52;;;7.60;;
48524;SDS011;34316;51.514;-0.178;2022-09-14T06:28:43;9.38;;;7.38;;
48524;SDS011;34316;51.514;-0.178;2022-09-14T06:30:45;11.65;;;6.90;;
48524;SDS011;34316;51.514;-0.178;2022-09-14T06:32:46;8.20;;;7.03;;
48524;SDS011;34316;51.514;-0.178;2022-09-14T06:34:48;11.35;;;7.03;;
48524;SDS011;34316;51.514;-0.178;2022-09-14T06:36:50;12.00;;;6.80;;
48524;SDS011;34316;51.514;-0.178;2022-09-14T06:38:51;9.35;;;7.15;;
48524;SDS011;34316;51.514;-0.178;2022-09-14T06:40:57;10.13;;;6.93;;
48524;SDS011;34316;51.514;-0.178;2022-09-14T06:43:01;11.70;;;6.95;;
48524;SDS011;34316;51.514;-0.178;2022-09-14T06:45:02;10.00;;;6.68;;
48524;SDS011;34316;51.514;-0.178;2022-09-14T06:47:05;13.15;;;6.93;;
48524;SDS011;34316;51.514;-0.178;2022-09-14T06:49:10;12.48;;;7.95;;
48524;SDS011;34316;51.514;-0.178;2022-09-14T06:51:21;11.13;;;7.40;;
48524;SDS011;34316;51.514;-0.178;2022-09-14T06:53:32;8.88;;;6.65;;
48524;SDS011;34316;51.514;-0.178;2022-09-14T06:55:34;41.47;;;24.33;;
48524;SDS011;34316;51.514;-0.178;2022-09-14T06:57:35;7.60;;;6.72;;
48524;SDS011;34316;51.514;-0.178;2022-09-14T06:59:43;10.05;;;6.45;;
48524;SDS011;34316;51.514;-0.178;2022-09-14T07:01:45;8.50;;;6.65;;
48524;SDS011;34316;51.514;-0.178;2022-09-14T07:03:47;9.02;;;6.50;;
48524;SDS011;34316;51.514;-0.178;2022-09-14T07:05:49;11.30;;;7.00;;
48524;SDS011;34316;51.514;-0.178;2022-09-14T07:07:51;8.63;;;6.63;;
48524;SDS011;34316;51.514;-0.178;2022-09-14T07:09:53;8.68;;;6.10;;
48524;SDS011;34316;51.514;-0.178;2022-09-14T07:11:55;12.02;;;7.03;;
48524;SDS011;34316;51.514;-0.178;2022-09-14T07:13:56;9.65;;;6.50;;
48524;SDS011;34316;51.514;-0.178;2022-09-14T07:16:02;11.05;;;6.80;;
48524;SDS011;34316;51.514;-0.178;2022-09-14T07:18:04;10.00;;;7.30;;
48524;SDS011;34316;51.514;-0.178;2022-09-14T07:20:06;9.82;;;6.68;;
48524;SDS011;34316;51.514;-0.178;2022-09-14T07:22:08;11.77;;;6.28;;
48524;SDS011;34316;51.514;-0.178;2022-09-14T07:24:13;9.38;;;6.57;;
48524;SDS011;34316;51.514;-0.178;2022-09-14T07:28:20;11.88;;;6.13;;
48524;SDS011;34316;51.514;-0.178;2022-09-14T07:30:22;6.68;;;4.72;;
48524;SDS011;34316;51.514;-0.178;2022-09-14T07:32:25;10.50;;;6.00;;
48524;SDS011;34316;51.514;-0.178;2022-09-14T07:34:26;9.30;;;6.07;;
48524;SDS011;34316;51.514;-0.178;2022-09-14T07:36:29;10.48;;;5.45;;
48524;SDS011;34316;51.514;-0.178;2022-09-14T07:38:35;11.48;;;5.63;;
48524;SDS011;34316;51.514;-0.178;2022-09-14T07:40:56;7.15;;;5.78;;
48524;SDS011;34316;51.514;-0.178;2022-09-14T07:42:58;10.30;;;6.20;;
48524;SDS011;34316;51.514;-0.178;2022-09-14T07:45:02;9.10;;;5.68;;
48524;SDS011;34316;51.514;-0.178;2022-09-14T07:47:05;13.15;;;7.38;;
48524;SDS011;34316;51.514;-0.178;2022-09-14T07:49:07;14.70;;;6.00;;
48524;SDS011;34316;51.514;-0.178;2022-09-14T07:51:10;10.05;;;6.55;;
48524;SDS011;34316;51.514;-0.178;2022-09-14T07:53:12;15.05;;;6.40;;
48524;SDS011;34316;51.514;-0.178;2022-09-14T07:55:14;11.75;;;5.47;;
48524;SDS011;34316;51.514;-0.178;2022-09-14T07:57:16;13.18;;;6.45;;
48524;SDS011;34316;51.514;-0.178;2022-09-14T07:59:18;8.77;;;5.40;;
48524;SDS011;34316;51.514;-0.178;2022-09-14T08:01:37;10.25;;;6.00;;
48524;SDS011;34316;51.514;-0.178;2022-09-14T08:03:42;10.05;;;5.78;;
48524;SDS011;34316;51.514;-0.178;2022-09-14T08:05:45;10.20;;;5.88;;
48524;SDS011;34316;51.514;-0.178;2022-09-14T08:07:51;10.68;;;5.90;;
48524;SDS011;34316;51.514;-0.178;2022-09-14T08:09:54;10.23;;;5.60;;
48524;SDS011;34316;51.514;-0.178;2022-09-14T08:11:56;8.63;;;5.65;;
48524;SDS011;34316;51.514;-0.178;2022-09-14T08:13:58;9.90;;;5.57;;
48524;SDS011;34316;51.514;-0.178;2022-09-14T08:16:10;10.40;;;5.50;;
48524;SDS011;34316;51.514;-0.178;2022-09-14T08:18:12;11.75;;;5.20;;
48524;SDS011;34316;51.514;-0.178;2022-09-14T08:20:15;11.47;;;5.57;;
48524;SDS011;34316;51.514;-0.178;2022-09-14T08:22:17;9.88;;;5.18;;
48524;SDS011;34316;51.514;-0.178;2022-09-14T08:24:19;9.85;;;5.57;;
48524;SDS011;34316;51.514;-0.178;2022-09-14T08:26:21;9.10;;;5.43;;
48524;SDS011;34316;51.514;-0.178;2022-09-14T08:28:24;10.15;;;4.85;;
48524;SDS011;34316;51.514;-0.178;2022-09-14T08:30:26;8.20;;;5.18;;
48524;SDS011;34316;51.514;-0.178;2022-09-14T08:32:27;9.93;;;4.40;;
48524;SDS011;34316;51.514;-0.178;2022-09-14T08:34:29;12.32;;;6.00;;
48524;SDS011;34316;51.514;-0.178;2022-09-14T08:36:32;7.25;;;5.40;;
48524;SDS011;34316;51.514;-0.178;2022-09-14T08:38:35;7.50;;;5.22;;
48524;SDS011;34316;51.514;-0.178;2022-09-14T08:40:44;9.35;;;6.03;;
48524;SDS011;34316;51.514;-0.178;2022-09-14T08:42:46;10.40;;;5.05;;
48524;SDS011;34316;51.514;-0.178;2022-09-14T08:44:50;17.50;;;6.22;;
48524;SDS011;34316;51.514;-0.178;2022-09-14T08:47:01;7.07;;;5.28;;
48524;SDS011;34316;51.514;-0.178;2022-09-14T08:49:04;9.90;;;5.70;;
48524;SDS011;34316;51.514;-0.178;2022-09-14T08:51:13;8.18;;;5.25;;
48524;SDS011;34316;51.514;-0.178;2022-09-14T08:53:15;13.85;;;5.45;;
48524;SDS011;34316;51.514;-0.178;2022-09-14T08:57:30;9.85;;;5.80;;
48524;SDS011;34316;51.514;-0.178;2022-09-14T08:59:51;10.30;;;5.63;;
48524;SDS011;34316;51.514;-0.178;2022-09-14T09:02:03;8.80;;;5.45;;
48524;SDS011;34316;51.514;-0.178;2022-09-14T09:09:15;9.98;;;5.22;;
48524;SDS011;34316;51.514;-0.178;2022-09-14T09:11:33;11.85;;;5.50;;
48524;SDS011;34316;51.514;-0.178;2022-09-14T09:13:38;9.30;;;5.85;;
48524;SDS011;34316;51.514;-0.178;2022-09-14T09:15:50;15.77;;;6.30;;
48524;SDS011;34316;51.514;-0.178;2022-09-14T09:17:54;12.27;;;6.67;;
48524;SDS011;34316;51.514;-0.178;2022-09-14T09:22:25;9.23;;;5.75;;
48524;SDS011;34316;51.514;-0.178;2022-09-14T09:24:36;13.20;;;6.82;;
48524;SDS011;34316;51.514;-0.178;2022-09-14T09:26:42;13.40;;;6.57;;
48524;SDS011;34316;51.514;-0.178;2022-09-14T09:28:49;9.82;;;5.82;;
48524;SDS011;34316;51.514;-0.178;2022-09-14T09:30:53;10.10;;;5.82;;
48524;SDS011;34316;51.514;-0.178;2022-09-14T09:32:56;11.50;;;5.57;;
48524;SDS011;34316;51.514;-0.178;2022-09-14T09:34:57;11.32;;;5.32;;
48524;SDS011;34316;51.514;-0.178;2022-09-14T09:36:59;10.27;;;5.50;;
48524;SDS011;34316;51.514;-0.178;2022-09-14T09:39:01;8.57;;;5.25;;
48524;SDS011;34316;51.514;-0.178;2022-09-14T09:41:15;8.75;;;4.60;;
48524;SDS011;34316;51.514;-0.178;2022-09-14T09:43:20;15.55;;;6.07;;
48524;SDS011;34316;51.514;-0.178;2022-09-14T09:45:55;11.13;;;6.47;;
48524;SDS011;34316;51.514;-0.178;2022-09-14T09:48:06;13.25;;;5.93;;
48524;SDS011;34316;51.514;-0.178;2022-09-14T09:52:15;10.95;;;5.50;;
48524;SDS011;34316;51.514;-0.178;2022-09-14T09:54:20;12.93;;;5.72;;
48524;SDS011;34316;51.514;-0.178;2022-09-14T09:57:18;7.95;;;5.13;;
48524;SDS011;34316;51.514;-0.178;2022-09-14T09:59:01;7.18;;;4.70;;
48524;SDS011;34316;51.514;-0.178;2022-09-14T10:01:08;7.53;;;4.97;;
48524;SDS011;34316;51.514;-0.178;2022-09-14T10:03:25;9.13;;;4.70;;
48524;SDS011;34316;51.514;-0.178;2022-09-14T10:10:07;10.40;;;5.20;;
48524;SDS011;34316;51.514;-0.178;2022-09-14T10:12:12;8.23;;;4.25;;
48524;SDS011;34316;51.514;-0.178;2022-09-14T10:14:20;8.93;;;4.57;;
48524;SDS011;34316;51.514;-0.178;2022-09-14T10:16:24;8.93;;;4.50;;
48524;SDS011;34316;51.514;-0.178;2022-09-14T10:18:32;8.20;;;4.00;;
48524;SDS011;34316;51.514;-0.178;2022-09-14T10:20:35;9.02;;;3.78;;
48524;SDS011;34316;51.514;-0.178;2022-09-14T10:22:37;5.95;;;3.75;;
48524;SDS011;34316;51.514;-0.178;2022-09-14T10:24:50;7.35;;;3.65;;
48524;SDS011;34316;51.514;-0.178;2022-09-14T10:27:10;7.22;;;4.28;;
48524;SDS011;34316;51.514;-0.178;2022-09-14T10:29:43;8.85;;;3.78;;
48524;SDS011;34316;51.514;-0.178;2022-09-14T10:31:44;9.80;;;3.88;;
48524;SDS011;34316;51.514;-0.178;2022-09-14T10:33:51;8.48;;;3.83;;
48524;SDS011;34316;51.514;-0.178;2022-09-14T10:40:19;7.85;;;3.75;;
48524;SDS011;34316;51.514;-0.178;2022-09-14T10:42:30;8.90;;;3.92;;
48524;SDS011;34316;51.514;-0.178;2022-09-14T10:44:44;8.35;;;3.15;;
48524;SDS011;34316;51.514;-0.178;2022-09-14T10:50:00;5.13;;;2.60;;
48524;SDS011;34316;51.514;-0.178;2022-09-14T11:05:48;1.95;;;1.20;;
48524;SDS011;34316;51.514;-0.178;2022-09-14T11:12:45;2.95;;;1.40;;
48524;SDS011;34316;51.514;-0.178;2022-09-14T11:27:28;3.92;;;1.45;;
48524;SDS011;34316;51.514;-0.178;2022-09-14T11:29:37;5.28;;;1.60;;
48524;SDS011;34316;51.514;-0.178;2022-09-14T11:31:51;3.40;;;1.80;;
48524;SDS011;34316;51.514;-0.178;2022-09-14T11:34:44;2.60;;;1.30;;
48524;SDS011;34316;51.514;-0.178;2022-09-14T11:36:49;4.18;;;1.50;;
48524;SDS011;34316;51.514;-0.178;2022-09-14T11:38:58;5.43;;;1.80;;
48524;SDS011;34316;51.514;-0.178;2022-09-14T11:43:42;4.53;;;2.08;;
48524;SDS011;34316;51.514;-0.178;2022-09-14T11:45:53;6.22;;;2.00;;
48524;SDS011;34316;51.514;-0.178;2022-09-14T11:50:32;5.07;;;1.60;;
48524;SDS011;34316;51.514;-0.178;2022-09-14T11:52:35;3.42;;;1.40;;
48524;SDS011;34316;51.514;-0.178;2022-09-14T11:54:40;5.43;;;1.83;;
48524;SDS011;34316;51.514;-0.178;2022-09-14T11:56:47;2.30;;;1.58;;
48524;SDS011;34316;51.514;-0.178;2022-09-14T11:58:52;3.17;;;1.50;;
48524;SDS011;34316;51.514;-0.178;2022-09-14T12:05:53;4.50;;;1.60;;
48524;SDS011;34316;51.514;-0.178;2022-09-14T12:07:58;5.07;;;1.50;;
48524;SDS011;34316;51.514;-0.178;2022-09-14T12:12:26;5.22;;;1.40;;
48524;SDS011;34316;51.514;-0.178;2022-09-14T12:14:35;4.85;;;1.77;;
48524;SDS011;34316;51.514;-0.178;2022-09-14T12:19:27;6.32;;;1.40;;
48524;SDS011;34316;51.514;-0.178;2022-09-14T12:21:28;4.18;;;1.40;;
48524;SDS011;34316;51.514;-0.178;2022-09-14T12:25:52;2.83;;;1.38;;
48524;SDS011;34316;51.514;-0.178;2022-09-14T12:27:55;4.55;;;1.48;;
48524;SDS011;34316;51.514;-0.178;2022-09-14T12:29:57;2.97;;;1.38;;
48524;SDS011;34316;51.514;-0.178;2022-09-14T12:32:00;1.92;;;1.33;;
48524;SDS011;34316;51.514;-0.178;2022-09-14T12:34:04;2.67;;;1.50;;
48524;SDS011;34316;51.514;-0.178;2022-09-14T12:40:32;4.28;;;1.40;;
48524;SDS011;34316;51.514;-0.178;2022-09-14T12:42:35;3.90;;;1.50;;
48524;SDS011;34316;51.514;-0.178;2022-09-14T12:44:40;5.53;;;1.70;;
48524;SDS011;34316;51.514;-0.178;2022-09-14T12:46:42;2.65;;;1.33;;
48524;SDS011;34316;51.514;-0.178;2022-09-14T12:50:49;2.20;;;1.50;;
48524;SDS011;34316;51.514;-0.178;2022-09-14T13:00:26;4.53;;;1.55;;
48524;SDS011;34316;51.514;-0.178;2022-09-14T13:04:51;4.70;;;1.92;;
48524;SDS011;34316;51.514;-0.178;2022-09-14T13:06:54;2.75;;;1.42;;
48524;SDS011;34316;51.514;-0.178;2022-09-14T13:08:57;6.43;;;1.80;;
48524;SDS011;34316;51.514;-0.178;2022-09-14T13:11:00;3.42;;;1.65;;
48524;SDS011;34316;51.514;-0.178;2022-09-14T13:13:02;2.00;;;1.42;;
48524;SDS011;34316;51.514;-0.178;2022-09-14T13:15:29;2.03;;;1.40;;
48524;SDS011;34316;51.514;-0.178;2022-09-14T13:17:33;5.90;;;1.50;;
48524;SDS011;34316;51.514;-0.178;2022-09-14T13:19:34;4.07;;;1.40;;
48524;SDS011;34316;51.514;-0.178;2022-09-14T13:21:36;3.83;;;1.90;;
48524;SDS011;34316;51.514;-0.178;2022-09-14T13:23:46;4.20;;;1.60;;
48524;SDS011;34316;51.514;-0.178;2022-09-14T13:25:48;3.42;;;1.50;;
48524;SDS011;34316;51.514;-0.178;2022-09-14T13:27:50;2.63;;;1.50;;
48524;SDS011;34316;51.514;-0.178;2022-09-14T13:29:59;1.90;;;1.35;;
48524;SDS011;34316;51.514;-0.178;2022-09-14T13:32:02;6.53;;;1.50;;
48524;SDS011;34316;51.514;-0.178;2022-09-14T13:34:04;8.65;;;1.98;;
48524;SDS011;34316;51.514;-0.178;2022-09-14T13:36:06;3.65;;;1.65;;
48524;SDS011;34316;51.514;-0.178;2022-09-14T13:38:15;3.92;;;1.42;;
48524;SDS011;34316;51.514;-0.178;2022-09-14T13:40:21;3.83;;;1.52;;
48524;SDS011;34316;51.514;-0.178;2022-09-14T13:42:28;2.33;;;1.60;;
48524;SDS011;34316;51.514;-0.178;2022-09-14T13:44:34;4.22;;;1.95;;
48524;SDS011;34316;51.514;-0.178;2022-09-14T13:46:37;2.00;;;1.55;;
48524;SDS011;34316;51.514;-0.178;2022-09-14T13:48:40;3.60;;;1.45;;
48524;SDS011;34316;51.514;-0.178;2022-09-14T13:50:44;3.45;;;1.38;;
48524;SDS011;34316;51.514;-0.178;2022-09-14T13:52:48;3.22;;;1.60;;
48524;SDS011;34316;51.514;-0.178;2022-09-14T13:57:23;4.45;;;1.63;;
48524;SDS011;34316;51.514;-0.178;2022-09-14T13:59:25;3.20;;;1.65;;
48524;SDS011;34316;51.514;-0.178;2022-09-14T14:01:27;2.85;;;1.45;;
48524;SDS011;34316;51.514;-0.178;2022-09-14T14:05:39;4.50;;;1.90;;
48524;SDS011;34316;51.514;-0.178;2022-09-14T14:07:43;5.18;;;1.65;;
48524;SDS011;34316;51.514;-0.178;2022-09-14T14:09:49;4.80;;;1.73;;
48524;SDS011;34316;51.514;-0.178;2022-09-14T14:11:55;4.22;;;1.90;;
48524;SDS011;34316;51.514;-0.178;2022-09-14T14:16:19;3.13;;;1.58;;
48524;SDS011;34316;51.514;-0.178;2022-09-14T14:18:37;5.03;;;1.77;;
48524;SDS011;34316;51.514;-0.178;2022-09-14T14:20:41;2.60;;;1.73;;
48524;SDS011;34316;51.514;-0.178;2022-09-14T14:22:53;5.20;;;1.60;;
48524;SDS011;34316;51.514;-0.178;2022-09-14T14:24:56;4.82;;;1.63;;
48524;SDS011;34316;51.514;-0.178;2022-09-14T14:29:39;6.65;;;1.65;;
48524;SDS011;34316;51.514;-0.178;2022-09-14T14:31:41;3.90;;;1.80;;
48524;SDS011;34316;51.514;-0.178;2022-09-14T14:33:44;4.78;;;1.77;;